Portada
METAR-TAF:

METAR-TAF

Aeroports :

Tientsin, Xina

latitud: 39-11N, longitud: 117-21E, altitud: 3 m

Observació

L'informe es va fer fa 15 minuts, a les 21:30 UTC
Vent 2 kt amb direcció variable
Temperatura 15°C
Humitat 94%
Pressió 1010 hPa
Visibilitat: 2500 m
boirina

METAR: ZBTJ 252130Z VRB01MPS 2500 BR NSC 15/14 Q1010 NOSIG

Hora: 05:45 (21:45 UTC)

Pronòstic

L'informe es va fer fa 6 hores i 39 minuts, a les 15:06 UTC
Pronòstic vàlid del 25 a les 18 UTC al 26 a les 18 UTC
Vent 6 kt del Sud
Visibilitat: 5000 m
calitja

TAF: ZBTJ 251506Z 2518/2618 18003MPS 5000 HZ NSC TX26/2607Z TN14/2521Z

Observacions i pronòstics meteorològics de més de 4000 aeroports (METAR i TAF).

Les estacions disponibles són els punts grocs i vermells al mapa.

Posi el ratolí al punt desitjat per veure el nom de l'estació.

Feu clic per veure les observacions i els pronòstics meteorològics.

Per canviar el mapa: feu clic els botons verds amb una creu de color negre per apropar; al botó verd amb un guió per allunyar la imatge; o en les fletxes verdes per a mapes adjacents.


METAR-TAF: